Time;durP1;ratioP1;P1;durP2;ratioP2;P2;SDS_P1;SDS_P2;PMS_P1;PMS_P2;Temp;Humidity;BMP_temperature;BMP_pressure;BME280_temperature;BME280_humidity;BME280_pressure;Samples;Min_cycle;Max_cycle;Signal;HPM_P1;HPM_P2
2023/07/17 11:23:51;;;;;;;;;;;14.80;87.90;;;;;;6238893;23;19947;-75
2023/07/17 11:26:21;;;;;;;;;;;14.70;87.90;;;;;;6241718;23;19997;-77
2023/07/17 11:28:49;;;;;;;;;;;14.70;88.00;;;;;;6241443;23;19915;-77
2023/07/17 11:31:34;;;;;;;;;;;14.70;88.00;;;;;;6215226;23;20239;-75
2023/07/17 11:34:07;;;;;;;;;;;14.70;88.00;;;;;;6242921;23;19907;-76
2023/07/17 11:36:41;;;;;;;;;;;14.70;88.10;;;;;;6245186;23;20027;-75
2023/07/17 11:39:11;;;;;;;;;;;14.70;88.10;;;;;;6243624;23;20246;-75
2023/07/17 11:41:54;;;;;;;;;;;14.70;88.20;;;;;;6245008;22;19904;-76
2023/07/17 11:44:26;;;;;;;;;;;14.70;88.20;;;;;;6245048;23;20279;-75
2023/07/17 11:46:54;;;;;;;;;;;14.70;88.10;;;;;;6245169;23;19915;-77
2023/07/17 11:49:21;;;;;;;;;;;14.60;88.00;;;;;;6245248;23;19926;-76
2023/07/17 11:51:48;;;;;;;;;;;14.60;88.00;;;;;;6213910;23;19911;-76
2023/07/17 11:54:15;;;;;;;;;;;14.60;88.10;;;;;;6245822;23;19908;-75
2023/07/17 11:56:42;;;;;;;;;;;14.50;88.10;;;;;;6244952;23;20349;-76
2023/07/17 11:59:21;;;;;;;;;;;14.50;88.10;;;;;;6244531;23;19910;-76
2023/07/17 12:01:48;;;;;;;;;;;14.50;88.20;;;;;;6245014;22;19904;-76
2023/07/17 12:04:19;;;;;;;;;;;14.40;88.10;;;;;;6245657;23;19987;-75
2023/07/17 12:06:46;;;;;;;;;;;14.40;88.20;;;;;;6244903;23;19942;-76
2023/07/17 12:09:13;;;;;;;;;;;14.40;88.10;;;;;;6245250;23;19908;-76
2023/07/17 12:11:40;;;;;;;;;;;14.30;88.10;;;;;;6244929;22;19907;-76
2023/07/17 12:14:06;;;;;;;;;;;14.30;88.20;;;;;;6244493;23;19904;-77
2023/07/17 12:16:33;;;;;;;;;;;14.30;88.20;;;;;;6245435;23;19903;-77
2023/07/17 12:19:00;;;;;;;;;;;14.20;88.20;;;;;;6243825;23;19904;-77
2023/07/17 12:21:27;;;;;;;;;;;14.20;88.40;;;;;;6244374;22;20224;-77
2023/07/17 12:23:53;;;;;;;;;;;14.20;88.50;;;;;;6271232;22;20025;-77
2023/07/17 12:26:20;;;;;;;;;;;14.10;88.60;;;;;;6274775;22;20347;-76
2023/07/17 12:28:47;;;;;;;;;;;14.10;88.60;;;;;;6248705;22;19974;-77
2023/07/17 12:31:13;;;;;;;;;;;14.20;88.70;;;;;;6274281;22;19931;-77
2023/07/17 12:33:40;;;;;;;;;;;14.20;88.70;;;;;;6274519;22;19982;-77
2023/07/17 12:36:07;;;;;;;;;;;14.20;88.70;;;;;;6274850;22;20337;-77
2023/07/17 12:38:34;;;;;;;;;;;14.20;88.80;;;;;;6276098;22;19966;-76
2023/07/17 12:41:00;;;;;;;;;;;14.10;88.60;;;;;;6275869;22;19926;-77
2023/07/17 12:43:27;;;;;;;;;;;14.00;88.70;;;;;;6273802;22;19965;-76
2023/07/17 12:45:54;;;;;;;;;;;14.00;88.80;;;;;;6274987;22;19907;-77
2023/07/17 12:48:20;;;;;;;;;;;13.90;88.90;;;;;;6275495;22;20315;-77
2023/07/17 12:50:47;;;;;;;;;;;13.90;88.80;;;;;;6275910;22;19909;-77
2023/07/17 12:53:14;;;;;;;;;;;13.80;88.90;;;;;;6275364;22;20303;-77
2023/07/17 12:55:40;;;;;;;;;;;13.80;88.90;;;;;;6273306;22;19914;-77
2023/07/17 12:58:07;;;;;;;;;;;13.80;88.70;;;;;;6272842;22;20214;-77
2023/07/17 13:00:34;;;;;;;;;;;13.70;88.80;;;;;;6274150;22;19914;-78
2023/07/17 13:03:01;;;;;;;;;;;13.70;89.00;;;;;;6273016;22;19966;-77
2023/07/17 13:05:28;;;;;;;;;;;13.70;89.10;;;;;;6274016;22;19966;-77
2023/07/17 13:07:54;;;;;;;;;;;13.70;89.30;;;;;;6246171;22;19921;-77
2023/07/17 13:29:32;;;;;;;;;;;13.70;89.60;;;;;;6270275;22;20254;-76
2023/07/17 13:31:59;;;;;;;;;;;13.70;89.50;;;;;;6244452;22;19923;-77
2023/07/17 13:34:27;;;;;;;;;;;13.70;89.50;;;;;;6244313;23;19979;-77
2023/07/17 13:36:54;;;;;;;;;;;13.70;89.50;;;;;;6244729;23;19916;-77
2023/07/17 13:39:21;;;;;;;;;;;13.70;89.50;;;;;;6244559;23;19904;-77
2023/07/17 13:41:48;;;;;;;;;;;13.70;89.50;;;;;;6242327;22;19941;-77
2023/07/17 13:44:15;;;;;;;;;;;13.70;89.50;;;;;;6217135;23;20254;-77
2023/07/17 13:46:42;;;;;;;;;;;13.70;89.50;;;;;;6217581;23;20334;-77
2023/07/17 13:49:09;;;;;;;;;;;13.70;89.40;;;;;;6244669;23;19904;-77
2023/07/17 13:51:36;;;;;;;;;;;13.60;89.50;;;;;;6245437;22;19914;-78
2023/07/17 13:54:03;;;;;;;;;;;13.60;89.40;;;;;;6218062;23;20315;-77
2023/07/17 13:56:31;;;;;;;;;;;13.60;89.50;;;;;;6217642;23;20358;-77
2023/07/17 13:58:57;;;;;;;;;;;13.60;89.40;;;;;;6217038;23;20326;-78
2023/07/17 14:01:24;;;;;;;;;;;13.50;89.40;;;;;;6217765;23;20338;-78
2023/07/17 14:03:51;;;;;;;;;;;13.50;89.40;;;;;;6217231;23;19998;-77
2023/07/17 14:06:18;;;;;;;;;;;13.50;89.30;;;;;;6244956;23;20006;-77
2023/07/17 14:08:45;;;;;;;;;;;13.50;89.40;;;;;;6244637;23;20027;-77
2023/07/17 14:11:12;;;;;;;;;;;13.50;89.40;;;;;;6244399;22;20315;-77
2023/07/17 14:13:38;;;;;;;;;;;13.40;89.40;;;;;;6244454;23;19926;-77
2023/07/17 14:16:08;;;;;;;;;;;13.40;89.30;;;;;;6244460;23;20319;-77
2023/07/17 14:18:37;;;;;;;;;;;13.40;89.40;;;;;;6217515;23;19931;-77
2023/07/17 14:21:04;;;;;;;;;;;13.40;89.40;;;;;;6244391;22;19927;-77
2023/07/17 14:23:30;;;;;;;;;;;13.30;89.50;;;;;;6243605;23;19912;-78
2023/07/17 14:25:57;;;;;;;;;;;13.40;89.60;;;;;;6243521;23;20329;-78
2023/07/17 14:28:24;;;;;;;;;;;13.30;89.40;;;;;;6244634;23;19908;-77
2023/07/17 14:30:53;;;;;;;;;;;13.30;89.20;;;;;;6263866;22;20337;-77
2023/07/17 14:33:20;;;;;;;;;;;13.30;89.40;;;;;;6276193;22;19904;-77
2023/07/17 14:35:47;;;;;;;;;;;13.20;89.50;;;;;;6249242;22;19910;-77
2023/07/17 14:38:13;;;;;;;;;;;13.30;89.70;;;;;;6275886;22;19903;-77
2023/07/17 14:40:40;;;;;;;;;;;13.20;89.60;;;;;;6275670;22;20231;-77
2023/07/17 14:43:07;;;;;;;;;;;13.20;89.50;;;;;;6275680;22;19903;-77
2023/07/17 14:45:34;;;;;;;;;;;13.20;89.50;;;;;;6248574;22;19911;-77
2023/07/17 14:48:00;;;;;;;;;;;13.20;89.40;;;;;;6275350;22;19904;-77
2023/07/17 14:50:27;;;;;;;;;;;13.10;89.50;;;;;;6275787;22;19909;-77
2023/07/17 14:52:54;;;;;;;;;;;13.10;89.60;;;;;;6275433;22;19926;-77
2023/07/17 14:55:22;;;;;;;;;;;13.10;89.70;;;;;;6275898;22;20067;-77
2023/07/17 14:57:49;;;;;;;;;;;13.00;89.70;;;;;;6274756;22;19986;-77
2023/07/17 15:00:16;;;;;;;;;;;13.00;89.80;;;;;;6275375;22;19935;-77
2023/07/17 15:02:43;;;;;;;;;;;13.00;89.80;;;;;;6253642;22;20283;-77
2023/07/17 15:05:10;;;;;;;;;;;13.00;89.80;;;;;;6305996;22;19946;-77
2023/07/17 15:07:37;;;;;;;;;;;13.10;89.80;;;;;;6305951;22;19903;-77
2023/07/17 15:10:04;;;;;;;;;;;13.00;89.80;;;;;;6306434;22;20653;-77
2023/07/17 15:12:30;;;;;;;;;;;13.00;89.70;;;;;;6306571;22;19907;-77
2023/07/17 15:14:57;;;;;;;;;;;13.00;89.80;;;;;;6306522;22;20344;-77
2023/07/17 15:17:24;;;;;;;;;;;12.90;89.80;;;;;;6306324;22;19903;-77
2023/07/17 15:19:51;;;;;;;;;;;13.00;89.80;;;;;;6305676;22;19910;-77
2023/07/17 15:22:17;;;;;;;;;;;13.00;89.90;;;;;;6305105;22;19911;-77
2023/07/17 15:24:44;;;;;;;;;;;13.00;90.20;;;;;;6306224;22;19911;-77
2023/07/17 15:27:11;;;;;;;;;;;12.90;90.20;;;;;;6306516;22;19922;-77
2023/07/17 15:29:38;;;;;;;;;;;12.90;90.30;;;;;;6305959;22;19920;-77
2023/07/17 15:32:05;;;;;;;;;;;12.90;90.20;;;;;;6305278;22;19903;-77
2023/07/17 15:34:31;;;;;;;;;;;12.90;90.10;;;;;;6305784;22;19934;-77
2023/07/17 15:36:58;;;;;;;;;;;12.80;90.20;;;;;;6305617;22;19910;-77
2023/07/17 15:39:25;;;;;;;;;;;12.90;90.30;;;;;;6306674;22;19910;-77
2023/07/17 15:41:51;;;;;;;;;;;12.90;90.20;;;;;;6306370;22;19907;-77
2023/07/17 15:44:18;;;;;;;;;;;12.90;90.30;;;;;;6306604;22;19918;-77
2023/07/17 15:46:45;;;;;;;;;;;12.90;90.20;;;;;;6306430;22;19903;-77
2023/07/17 15:49:11;;;;;;;;;;;12.90;90.30;;;;;;6305866;22;19906;-76
2023/07/17 15:51:38;;;;;;;;;;;12.90;90.20;;;;;;6279091;22;20223;-77
2023/07/17 15:54:05;;;;;;;;;;;12.90;90.10;;;;;;6278732;22;19903;-77
2023/07/17 15:56:32;;;;;;;;;;;12.80;90.00;;;;;;6305958;22;20318;-77
2023/07/17 15:58:58;;;;;;;;;;;12.80;90.10;;;;;;6305504;22;19907;-77
2023/07/17 16:01:25;;;;;;;;;;;12.80;90.20;;;;;;6306197;22;19903;-76
2023/07/17 16:03:52;;;;;;;;;;;12.80;90.10;;;;;;6305713;22;19922;-77
2023/07/17 16:06:19;;;;;;;;;;;12.80;90.10;;;;;;6306134;22;19910;-77
2023/07/17 16:08:45;;;;;;;;;;;12.70;90.00;;;;;;6278954;22;20000;-77
2023/07/17 16:11:12;;;;;;;;;;;12.80;90.00;;;;;;6279264;22;19903;-77
2023/07/17 16:13:39;;;;;;;;;;;12.70;90.00;;;;;;6307618;22;19903;-77
2023/07/17 16:16:06;;;;;;;;;;;12.70;90.00;;;;;;6307658;22;19926;-77
2023/07/17 16:18:33;;;;;;;;;;;12.70;90.00;;;;;;6280803;22;20384;-77
2023/07/17 16:20:59;;;;;;;;;;;12.70;90.10;;;;;;6307861;22;19907;-77
2023/07/17 16:23:26;;;;;;;;;;;12.70;90.00;;;;;;6281517;22;20299;-77
2023/07/17 16:25:53;;;;;;;;;;;12.70;90.10;;;;;;6279901;22;19965;-77
2023/07/17 16:28:20;;;;;;;;;;;12.70;90.00;;;;;;6308573;22;19972;-77
2023/07/17 16:30:47;;;;;;;;;;;12.70;90.00;;;;;;6307737;22;19922;-77
2023/07/17 16:33:14;;;;;;;;;;;12.70;89.90;;;;;;6308321;22;19902;-77
2023/07/17 16:35:41;;;;;;;;;;;12.70;90.10;;;;;;6307916;22;20319;-77
2023/07/17 16:38:08;;;;;;;;;;;12.60;90.10;;;;;;6308027;22;19903;-77
2023/07/17 16:40:35;;;;;;;;;;;12.70;90.10;;;;;;6307809;22;19964;-77
2023/07/17 16:43:02;;;;;;;;;;;12.70;90.10;;;;;;6308281;22;19910;-77
2023/07/17 16:45:28;;;;;;;;;;;12.70;90.00;;;;;;6307212;22;19989;-77
2023/07/17 16:47:55;;;;;;;;;;;12.70;90.10;;;;;;6308229;22;20314;-77
2023/07/17 16:50:22;;;;;;;;;;;12.60;90.20;;;;;;6307664;22;19903;-76
2023/07/17 16:52:48;;;;;;;;;;;12.70;90.10;;;;;;6307892;22;20314;-77
2023/07/17 16:55:15;;;;;;;;;;;12.70;90.10;;;;;;6308300;22;19910;-77
2023/07/17 16:57:42;;;;;;;;;;;12.60;90.10;;;;;;6307973;22;19906;-77
2023/07/17 17:00:14;;;;;;;;;;;12.50;90.10;;;;;;6306973;22;19903;-77
2023/07/17 17:02:42;;;;;;;;;;;12.60;90.20;;;;;;6306640;22;19953;-77
2023/07/17 17:05:09;;;;;;;;;;;12.60;90.30;;;;;;6307111;22;19939;-76
2023/07/17 17:07:35;;;;;;;;;;;12.60;90.30;;;;;;6307387;22;19939;-77
2023/07/17 17:10:02;;;;;;;;;;;12.50;90.20;;;;;;6307169;22;19903;-77
2023/07/17 17:12:29;;;;;;;;;;;12.50;90.30;;;;;;6306695;22;19903;-77
2023/07/17 17:14:56;;;;;;;;;;;12.50;90.30;;;;;;6306333;22;19903;-77
2023/07/17 17:17:23;;;;;;;;;;;12.60;90.20;;;;;;6306375;22;19907;-77
2023/07/17 17:19:49;;;;;;;;;;;12.50;90.20;;;;;;6307145;22;19907;-77
2023/07/17 17:22:17;;;;;;;;;;;12.50;90.30;;;;;;6306000;22;19961;-77
2023/07/17 17:24:44;;;;;;;;;;;12.50;90.40;;;;;;6307319;22;20398;-77
2023/07/17 17:27:10;;;;;;;;;;;12.50;90.60;;;;;;6307288;22;19974;-77
2023/07/17 17:29:37;;;;;;;;;;;12.50;90.60;;;;;;6307516;22;19919;-77
2023/07/17 17:32:04;;;;;;;;;;;12.50;90.60;;;;;;6306630;22;19907;-77
2023/07/17 17:34:31;;;;;;;;;;;12.50;90.40;;;;;;6307430;22;19903;-77
2023/07/17 17:36:58;;;;;;;;;;;12.40;90.40;;;;;;6279736;22;19907;-77
2023/07/17 17:39:25;;;;;;;;;;;12.40;90.40;;;;;;6306148;22;20230;-77
2023/07/17 17:41:52;;;;;;;;;;;12.40;90.40;;;;;;6307583;22;19915;-77
2023/07/17 17:44:19;;;;;;;;;;;12.40;90.30;;;;;;6306535;22;19911;-77
2023/07/17 17:46:45;;;;;;;;;;;12.40;90.50;;;;;;6306522;22;19907;-77
2023/07/17 17:49:12;;;;;;;;;;;12.40;90.50;;;;;;6307461;22;19914;-77
2023/07/17 17:51:39;;;;;;;;;;;12.40;90.40;;;;;;6307091;22;19909;-77
2023/07/17 17:54:06;;;;;;;;;;;12.40;90.40;;;;;;6307186;22;19903;-77
2023/07/17 17:56:32;;;;;;;;;;;12.30;90.50;;;;;;6306956;22;20272;-77
2023/07/17 17:58:59;;;;;;;;;;;12.30;90.40;;;;;;6306599;22;19950;-77
2023/07/17 18:01:26;;;;;;;;;;;12.30;90.30;;;;;;6306472;22;19903;-77
2023/07/17 18:03:55;;;;;;;;;;;12.20;90.40;;;;;;6307106;22;19907;-77
2023/07/17 18:06:22;;;;;;;;;;;12.30;90.30;;;;;;6307216;22;20249;-77
2023/07/17 18:08:49;;;;;;;;;;;12.20;90.30;;;;;;6306976;22;19903;-77
2023/07/17 18:11:16;;;;;;;;;;;12.20;90.50;;;;;;6307019;22;19910;-77
2023/07/17 18:13:44;;;;;;;;;;;12.20;90.50;;;;;;6278379;22;19903;-77
2023/07/17 18:16:10;;;;;;;;;;;12.20;90.50;;;;;;6306514;22;19964;-77
2023/07/17 18:18:37;;;;;;;;;;;12.20;90.60;;;;;;6307251;22;20242;-77
2023/07/17 18:21:06;;;;;;;;;;;12.20;90.50;;;;;;6306422;22;19981;-77
2023/07/17 18:23:33;;;;;;;;;;;12.20;90.50;;;;;;6306621;22;19962;-77
2023/07/17 18:26:00;;;;;;;;;;;12.20;90.50;;;;;;6307093;22;19911;-76
2023/07/17 18:28:27;;;;;;;;;;;12.20;90.40;;;;;;6280186;22;19909;-77
2023/07/17 18:30:53;;;;;;;;;;;12.20;90.40;;;;;;6306790;22;20296;-77
2023/07/17 18:33:20;;;;;;;;;;;12.20;90.50;;;;;;6305684;22;20244;-77
2023/07/17 18:35:47;;;;;;;;;;;12.20;90.60;;;;;;6306668;22;20344;-76
2023/07/17 18:38:16;;;;;;;;;;;12.20;90.50;;;;;;6306040;22;19906;-77
2023/07/17 18:40:42;;;;;;;;;;;12.20;90.50;;;;;;6304986;22;20462;-79
2023/07/17 18:43:10;;;;;;;;;;;12.20;90.50;;;;;;6306074;22;19911;-76
2023/07/17 18:45:37;;;;;;;;;;;12.20;90.60;;;;;;6306783;22;19911;-76
2023/07/17 18:48:04;;;;;;;;;;;12.20;90.60;;;;;;6306572;22;19903;-76
2023/07/17 18:50:30;;;;;;;;;;;12.10;90.80;;;;;;6307079;22;19930;-76
2023/07/17 18:52:57;;;;;;;;;;;12.10;90.60;;;;;;6307017;22;19934;-76
2023/07/17 18:55:24;;;;;;;;;;;12.00;90.50;;;;;;6304658;22;19977;-77
2023/07/17 18:57:50;;;;;;;;;;;12.00;90.50;;;;;;6306131;22;19986;-76
2023/07/17 19:00:20;;;;;;;;;;;12.00;90.50;;;;;;6306584;22;19903;-77
2023/07/17 19:02:47;;;;;;;;;;;12.00;90.40;;;;;;6306628;22;19903;-77
2023/07/17 19:05:14;;;;;;;;;;;12.00;90.40;;;;;;6306098;22;20044;-76
2023/07/17 19:07:40;;;;;;;;;;;12.00;90.50;;;;;;6306583;22;20191;-75
2023/07/17 19:10:07;;;;;;;;;;;12.00;90.60;;;;;;6306138;22;19937;-77
2023/07/17 19:12:34;;;;;;;;;;;12.00;90.70;;;;;;6306772;22;20406;-82
2023/07/17 19:15:01;;;;;;;;;;;12.00;90.60;;;;;;6306636;22;19957;-79
2023/07/17 19:17:27;;;;;;;;;;;12.10;90.60;;;;;;6306999;22;19930;-79
2023/07/17 19:19:54;;;;;;;;;;;12.10;90.70;;;;;;6307080;22;19903;-79
2023/07/17 19:22:21;;;;;;;;;;;12.10;90.70;;;;;;6307002;22;19907;-79
2023/07/17 19:24:48;;;;;;;;;;;12.00;90.50;;;;;;6305434;22;19919;-79
2023/07/17 19:27:15;;;;;;;;;;;12.00;90.40;;;;;;6305896;22;20348;-79
2023/07/17 19:29:41;;;;;;;;;;;11.90;90.10;;;;;;6306128;22;19910;-76
2023/07/17 19:32:10;;;;;;;;;;;11.90;90.30;;;;;;6305800;22;19907;-76
2023/07/17 21:01:07;;;;;;;;;;;11.60;91.10;;;;;;6274537;22;20314;-76
2023/07/17 21:03:33;;;;;;;;;;;11.50;91.10;;;;;;6276686;22;19907;-74
2023/07/17 21:06:01;;;;;;;;;;;11.50;91.00;;;;;;6274208;22;19983;-74
2023/07/17 21:08:29;;;;;;;;;;;11.50;91.00;;;;;;6273649;22;19958;-74
2023/07/17 21:10:56;;;;;;;;;;;11.50;91.00;;;;;;6275156;22;19907;-76
2023/07/17 21:13:23;;;;;;;;;;;11.50;91.00;;;;;;6273846;22;20322;-73
2023/07/17 21:15:50;;;;;;;;;;;11.50;91.00;;;;;;6276477;22;19911;-73
2023/07/17 21:18:17;;;;;;;;;;;11.50;91.00;;;;;;6275359;22;19953;-77
2023/07/17 21:20:44;;;;;;;;;;;11.50;91.00;;;;;;6275966;22;19935;-77
2023/07/17 21:23:11;;;;;;;;;;;11.50;91.00;;;;;;6275409;22;19914;-74
2023/07/17 21:25:38;;;;;;;;;;;11.50;91.00;;;;;;6275832;22;20532;-74
2023/07/17 21:28:05;;;;;;;;;;;11.50;91.00;;;;;;6276293;22;19982;-77
2023/07/17 21:30:33;;;;;;;;;;;11.50;91.20;;;;;;6275807;22;19908;-73
2023/07/17 21:33:00;;;;;;;;;;;11.50;91.30;;;;;;6274810;22;19907;-77
2023/07/17 21:35:27;;;;;;;;;;;11.60;91.30;;;;;;6303878;22;20236;-74
2023/07/17 21:37:54;;;;;;;;;;;11.60;91.40;;;;;;6306325;22;20226;-77
2023/07/17 21:40:21;;;;;;;;;;;11.60;91.30;;;;;;6305014;22;19909;-75
2023/07/17 21:42:47;;;;;;;;;;;11.70;91.40;;;;;;6306332;22;19903;-75
2023/07/17 21:45:14;;;;;;;;;;;11.70;91.40;;;;;;6306237;22;19971;-75
2023/07/17 21:47:41;;;;;;;;;;;11.70;91.50;;;;;;6307472;22;19960;-74
2023/07/17 21:50:08;;;;;;;;;;;11.70;91.40;;;;;;6306863;22;20269;-75
2023/07/17 21:52:35;;;;;;;;;;;11.70;91.40;;;;;;6306895;22;20370;-75
2023/07/17 21:55:01;;;;;;;;;;;11.70;91.30;;;;;;6306925;22;20010;-78
2023/07/17 21:57:28;;;;;;;;;;;11.70;91.40;;;;;;6307157;22;19907;-77
2023/07/17 21:59:55;;;;;;;;;;;11.80;91.40;;;;;;6306215;22;19911;-76
2023/07/17 22:02:22;;;;;;;;;;;11.80;91.20;;;;;;6306272;22;19996;-77
2023/07/17 22:04:49;;;;;;;;;;;11.80;91.20;;;;;;6306571;22;19918;-77
2023/07/17 22:07:15;;;;;;;;;;;11.80;91.30;;;;;;6306830;22;19910;-79
2023/07/17 22:09:42;;;;;;;;;;;11.80;91.20;;;;;;6305888;22;19914;-77
2023/07/17 22:12:09;;;;;;;;;;;11.90;91.20;;;;;;6307397;22;20234;-74
2023/07/17 22:14:36;;;;;;;;;;;11.90;91.30;;;;;;6306250;22;19981;-74
2023/07/17 22:17:03;;;;;;;;;;;11.90;91.30;;;;;;6306397;22;20396;-75
2023/07/17 22:19:30;;;;;;;;;;;12.00;91.20;;;;;;6306664;22;19907;-75
2023/07/17 22:21:57;;;;;;;;;;;12.00;91.30;;;;;;6307281;22;19909;-75
2023/07/17 22:24:23;;;;;;;;;;;12.00;91.30;;;;;;6306607;22;20342;-74
2023/07/17 22:26:50;;;;;;;;;;;12.10;91.30;;;;;;6306842;22;19986;-74
2023/07/17 22:29:17;;;;;;;;;;;12.10;91.30;;;;;;6305527;22;19951;-75
2023/07/17 22:31:43;;;;;;;;;;;12.10;91.30;;;;;;6306487;22;19902;-75
2023/07/17 22:34:12;;;;;;;;;;;12.20;91.30;;;;;;6307040;22;19926;-75
2023/07/17 22:36:38;;;;;;;;;;;12.20;91.20;;;;;;6306757;22;19899;-75
2023/07/17 22:39:05;;;;;;;;;;;12.20;91.30;;;;;;6306959;22;19902;-75
2023/07/17 22:41:32;;;;;;;;;;;12.20;91.30;;;;;;6306877;22;19910;-75
2023/07/17 22:43:58;;;;;;;;;;;12.30;91.30;;;;;;6306885;22;20237;-75
2023/07/17 22:46:25;;;;;;;;;;;12.30;91.30;;;;;;6306902;22;19903;-75
2023/07/17 22:48:52;;;;;;;;;;;12.40;91.40;;;;;;6307045;22;19914;-75
2023/07/17 22:51:19;;;;;;;;;;;12.40;91.40;;;;;;6306863;22;20322;-75
2023/07/17 22:53:45;;;;;;;;;;;12.40;91.40;;;;;;6306795;22;20293;-75
2023/07/17 22:56:12;;;;;;;;;;;12.50;91.50;;;;;;6306778;22;19949;-74
2023/07/17 22:58:39;;;;;;;;;;;12.60;91.50;;;;;;6306803;22;19903;-75
2023/07/17 23:01:05;;;;;;;;;;;12.60;91.30;;;;;;6306469;22;19915;-75
2023/07/17 23:03:34;;;;;;;;;;;12.70;91.40;;;;;;6278920;22;20290;-75
2023/07/17 23:06:01;;;;;;;;;;;12.70;91.40;;;;;;6306809;22;19911;-75
2023/07/17 23:08:28;;;;;;;;;;;12.70;91.30;;;;;;6307050;22;19914;-75
2023/07/17 23:10:54;;;;;;;;;;;12.80;91.40;;;;;;6306964;22;19907;-75
